sensor_id;sensor_type;location;lat;lon;timestamp;P1;durP1;ratioP1;P2;durP2;ratioP2
11048;SDS011;5577;42.706;23.160;2023-03-01T00:01:22;7.03;;;5.60;;
11048;SDS011;5577;42.706;23.160;2023-03-01T00:04:09;8.20;;;6.70;;
11048;SDS011;5577;42.706;23.160;2023-03-01T00:06:53;7.33;;;6.03;;
11048;SDS011;5577;42.706;23.160;2023-03-01T00:09:38;7.73;;;5.73;;
11048;SDS011;5577;42.706;23.160;2023-03-01T00:12:23;7.57;;;6.03;;
11048;SDS011;5577;42.706;23.160;2023-03-01T00:15:07;8.50;;;6.57;;
11048;SDS011;5577;42.706;23.160;2023-03-01T00:17:51;6.40;;;5.57;;
11048;SDS011;5577;42.706;23.160;2023-03-01T00:20:35;7.87;;;6.00;;
11048;SDS011;5577;42.706;23.160;2023-03-01T00:23:20;8.73;;;6.17;;
11048;SDS011;5577;42.706;23.160;2023-03-01T00:26:06;8.93;;;6.70;;
11048;SDS011;5577;42.706;23.160;2023-03-01T00:28:52;7.57;;;6.10;;
11048;SDS011;5577;42.706;23.160;2023-03-01T00:31:37;9.20;;;6.63;;
11048;SDS011;5577;42.706;23.160;2023-03-01T00:34:21;16.83;;;10.47;;
11048;SDS011;5577;42.706;23.160;2023-03-01T00:37:05;18.87;;;15.93;;
11048;SDS011;5577;42.706;23.160;2023-03-01T00:39:49;21.93;;;16.80;;
11048;SDS011;5577;42.706;23.160;2023-03-01T00:42:33;18.47;;;15.80;;
11048;SDS011;5577;42.706;23.160;2023-03-01T00:45:17;14.70;;;12.27;;
11048;SDS011;5577;42.706;23.160;2023-03-01T00:48:01;14.20;;;10.97;;
11048;SDS011;5577;42.706;23.160;2023-03-01T00:50:45;10.20;;;8.43;;
11048;SDS011;5577;42.706;23.160;2023-03-01T00:53:29;9.30;;;7.07;;
11048;SDS011;5577;42.706;23.160;2023-03-01T00:56:13;9.47;;;6.53;;
11048;SDS011;5577;42.706;23.160;2023-03-01T00:58:58;7.10;;;6.33;;
11048;SDS011;5577;42.706;23.160;2023-03-01T01:01:42;6.90;;;6.20;;
11048;SDS011;5577;42.706;23.160;2023-03-01T01:04:26;6.10;;;5.30;;
11048;SDS011;5577;42.706;23.160;2023-03-01T01:07:10;6.83;;;4.90;;
11048;SDS011;5577;42.706;23.160;2023-03-01T01:09:54;6.23;;;5.20;;
11048;SDS011;5577;42.706;23.160;2023-03-01T01:12:38;4.87;;;4.47;;
11048;SDS011;5577;42.706;23.160;2023-03-01T01:15:22;5.10;;;4.53;;
11048;SDS011;5577;42.706;23.160;2023-03-01T01:18:06;6.40;;;4.67;;
11048;SDS011;5577;42.706;23.160;2023-03-01T01:20:50;5.87;;;3.87;;
11048;SDS011;5577;42.706;23.160;2023-03-01T01:23:34;4.83;;;4.33;;
11048;SDS011;5577;42.706;23.160;2023-03-01T01:26:19;4.03;;;3.63;;
11048;SDS011;5577;42.706;23.160;2023-03-01T01:29:05;4.00;;;3.60;;
11048;SDS011;5577;42.706;23.160;2023-03-01T01:31:50;4.10;;;3.43;;
11048;SDS011;5577;42.706;23.160;2023-03-01T01:34:34;4.17;;;3.67;;
11048;SDS011;5577;42.706;23.160;2023-03-01T01:37:18;4.47;;;3.83;;
11048;SDS011;5577;42.706;23.160;2023-03-01T01:40:03;5.17;;;3.67;;
11048;SDS011;5577;42.706;23.160;2023-03-01T01:42:47;4.03;;;3.63;;
11048;SDS011;5577;42.706;23.160;2023-03-01T01:45:35;4.80;;;4.00;;
11048;SDS011;5577;42.706;23.160;2023-03-01T01:48:20;6.17;;;5.57;;
11048;SDS011;5577;42.706;23.160;2023-03-01T01:51:19;5.20;;;4.57;;
11048;SDS011;5577;42.706;23.160;2023-03-01T01:54:14;4.00;;;3.50;;
11048;SDS011;5577;42.706;23.160;2023-03-01T01:57:06;4.67;;;4.00;;
11048;SDS011;5577;42.706;23.160;2023-03-01T01:59:53;4.47;;;3.33;;
11048;SDS011;5577;42.706;23.160;2023-03-01T02:02:41;3.93;;;3.53;;
11048;SDS011;5577;42.706;23.160;2023-03-01T02:08:33;4.20;;;3.43;;
11048;SDS011;5577;42.706;23.160;2023-03-01T02:11:21;3.90;;;3.50;;
11048;SDS011;5577;42.706;23.160;2023-03-01T02:14:05;3.97;;;3.33;;
11048;SDS011;5577;42.706;23.160;2023-03-01T02:16:50;4.10;;;3.30;;
11048;SDS011;5577;42.706;23.160;2023-03-01T02:19:40;3.77;;;3.47;;
11048;SDS011;5577;42.706;23.160;2023-03-01T02:22:30;4.13;;;3.57;;
11048;SDS011;5577;42.706;23.160;2023-03-01T02:30:59;4.17;;;3.00;;
11048;SDS011;5577;42.706;23.160;2023-03-01T02:34:04;4.00;;;3.60;;
11048;SDS011;5577;42.706;23.160;2023-03-01T02:39:42;4.80;;;3.97;;
11048;SDS011;5577;42.706;23.160;2023-03-01T02:42:35;5.80;;;3.63;;
11048;SDS011;5577;42.706;23.160;2023-03-01T02:45:25;4.23;;;2.90;;
11048;SDS011;5577;42.706;23.160;2023-03-01T02:48:11;3.53;;;2.70;;
11048;SDS011;5577;42.706;23.160;2023-03-01T02:51:05;3.10;;;2.30;;
11048;SDS011;5577;42.706;23.160;2023-03-01T02:56:53;3.90;;;2.30;;
11048;SDS011;5577;42.706;23.160;2023-03-01T02:59:38;3.10;;;2.53;;
11048;SDS011;5577;42.706;23.160;2023-03-01T03:02:24;3.43;;;2.83;;
11048;SDS011;5577;42.706;23.160;2023-03-01T03:05:20;3.80;;;2.87;;
11048;SDS011;5577;42.706;23.160;2023-03-01T03:08:06;3.57;;;2.57;;
11048;SDS011;5577;42.706;23.160;2023-03-01T03:10:51;2.70;;;2.30;;
11048;SDS011;5577;42.706;23.160;2023-03-01T03:13:35;3.70;;;2.43;;
11048;SDS011;5577;42.706;23.160;2023-03-01T03:16:19;2.70;;;2.40;;
11048;SDS011;5577;42.706;23.160;2023-03-01T03:19:03;2.17;;;1.97;;
11048;SDS011;5577;42.706;23.160;2023-03-01T03:21:48;2.40;;;2.20;;
11048;SDS011;5577;42.706;23.160;2023-03-01T03:24:33;2.87;;;2.23;;
11048;SDS011;5577;42.706;23.160;2023-03-01T03:27:21;2.67;;;2.37;;
11048;SDS011;5577;42.706;23.160;2023-03-01T03:30:06;3.53;;;2.90;;
11048;SDS011;5577;42.706;23.160;2023-03-01T03:32:56;3.20;;;2.50;;
11048;SDS011;5577;42.706;23.160;2023-03-01T03:35:42;4.17;;;3.13;;
11048;SDS011;5577;42.706;23.160;2023-03-01T03:38:28;4.13;;;3.17;;
11048;SDS011;5577;42.706;23.160;2023-03-01T03:41:13;3.63;;;3.13;;
11048;SDS011;5577;42.706;23.160;2023-03-01T03:43:57;3.40;;;2.93;;
11048;SDS011;5577;42.706;23.160;2023-03-01T03:46:40;3.47;;;2.90;;
11048;SDS011;5577;42.706;23.160;2023-03-01T03:49:25;2.23;;;1.93;;
11048;SDS011;5577;42.706;23.160;2023-03-01T03:52:08;2.17;;;1.93;;
11048;SDS011;5577;42.706;23.160;2023-03-01T03:54:56;2.73;;;2.50;;
11048;SDS011;5577;42.706;23.160;2023-03-01T03:57:40;2.50;;;2.30;;
11048;SDS011;5577;42.706;23.160;2023-03-01T04:00:24;2.50;;;2.07;;
11048;SDS011;5577;42.706;23.160;2023-03-01T04:03:09;2.10;;;1.83;;
11048;SDS011;5577;42.706;23.160;2023-03-01T04:05:56;2.17;;;1.83;;
11048;SDS011;5577;42.706;23.160;2023-03-01T04:08:42;2.07;;;1.87;;
11048;SDS011;5577;42.706;23.160;2023-03-01T04:11:26;2.50;;;1.93;;
11048;SDS011;5577;42.706;23.160;2023-03-01T04:14:10;2.27;;;1.80;;
11048;SDS011;5577;42.706;23.160;2023-03-01T04:16:54;2.40;;;2.13;;
11048;SDS011;5577;42.706;23.160;2023-03-01T04:19:38;2.73;;;2.20;;
11048;SDS011;5577;42.706;23.160;2023-03-01T04:22:22;2.53;;;2.00;;
11048;SDS011;5577;42.706;23.160;2023-03-01T04:25:06;2.10;;;1.90;;
11048;SDS011;5577;42.706;23.160;2023-03-01T04:27:50;2.00;;;1.80;;
11048;SDS011;5577;42.706;23.160;2023-03-01T04:30:35;2.47;;;2.23;;
11048;SDS011;5577;42.706;23.160;2023-03-01T04:33:20;3.07;;;2.53;;
11048;SDS011;5577;42.706;23.160;2023-03-01T04:36:05;2.30;;;2.10;;
11048;SDS011;5577;42.706;23.160;2023-03-01T04:38:52;2.93;;;1.93;;
11048;SDS011;5577;42.706;23.160;2023-03-01T04:41:36;2.63;;;1.90;;
11048;SDS011;5577;42.706;23.160;2023-03-01T04:44:21;2.43;;;2.23;;
11048;SDS011;5577;42.706;23.160;2023-03-01T04:47:05;2.40;;;2.10;;
11048;SDS011;5577;42.706;23.160;2023-03-01T04:49:50;2.50;;;2.07;;
11048;SDS011;5577;42.706;23.160;2023-03-01T04:52:33;2.27;;;2.00;;
11048;SDS011;5577;42.706;23.160;2023-03-01T04:55:18;3.00;;;2.33;;
11048;SDS011;5577;42.706;23.160;2023-03-01T04:58:02;2.70;;;2.10;;
11048;SDS011;5577;42.706;23.160;2023-03-01T05:00:46;1.80;;;1.67;;
11048;SDS011;5577;42.706;23.160;2023-03-01T05:03:30;1.70;;;1.60;;
11048;SDS011;5577;42.706;23.160;2023-03-01T05:06:15;1.70;;;1.60;;
11048;SDS011;5577;42.706;23.160;2023-03-01T05:09:00;2.10;;;1.80;;
11048;SDS011;5577;42.706;23.160;2023-03-01T05:11:44;1.90;;;1.70;;
11048;SDS011;5577;42.706;23.160;2023-03-01T05:14:29;2.70;;;2.13;;
11048;SDS011;5577;42.706;23.160;2023-03-01T05:17:13;2.03;;;1.90;;
11048;SDS011;5577;42.706;23.160;2023-03-01T05:19:57;2.47;;;2.27;;
11048;SDS011;5577;42.706;23.160;2023-03-01T05:22:43;2.40;;;2.20;;
11048;SDS011;5577;42.706;23.160;2023-03-01T05:25:27;2.30;;;2.10;;
11048;SDS011;5577;42.706;23.160;2023-03-01T05:28:16;2.90;;;2.40;;
11048;SDS011;5577;42.706;23.160;2023-03-01T05:31:00;2.77;;;2.57;;
11048;SDS011;5577;42.706;23.160;2023-03-01T05:33:44;4.03;;;3.13;;
11048;SDS011;5577;42.706;23.160;2023-03-01T05:36:29;2.90;;;2.60;;
11048;SDS011;5577;42.706;23.160;2023-03-01T05:39:13;3.83;;;2.90;;
11048;SDS011;5577;42.706;23.160;2023-03-01T05:41:58;3.07;;;2.77;;
11048;SDS011;5577;42.706;23.160;2023-03-01T05:44:43;3.70;;;3.00;;
11048;SDS011;5577;42.706;23.160;2023-03-01T05:47:28;4.53;;;3.40;;
11048;SDS011;5577;42.706;23.160;2023-03-01T05:50:22;4.83;;;2.83;;
11048;SDS011;5577;42.706;23.160;2023-03-01T05:53:10;3.40;;;2.90;;
11048;SDS011;5577;42.706;23.160;2023-03-01T05:56:06;4.00;;;3.20;;
11048;SDS011;5577;42.706;23.160;2023-03-01T05:58:50;4.33;;;3.33;;
11048;SDS011;5577;42.706;23.160;2023-03-01T06:01:35;4.10;;;3.40;;
11048;SDS011;5577;42.706;23.160;2023-03-01T06:04:19;3.63;;;2.87;;
11048;SDS011;5577;42.706;23.160;2023-03-01T06:07:03;4.03;;;3.30;;
11048;SDS011;5577;42.706;23.160;2023-03-01T06:09:47;4.10;;;3.33;;
11048;SDS011;5577;42.706;23.160;2023-03-01T06:12:34;8.93;;;3.50;;
11048;SDS011;5577;42.706;23.160;2023-03-01T06:15:20;4.53;;;3.50;;
11048;SDS011;5577;42.706;23.160;2023-03-01T06:18:05;3.50;;;2.70;;
11048;SDS011;5577;42.706;23.160;2023-03-01T06:20:52;3.00;;;2.37;;
11048;SDS011;5577;42.706;23.160;2023-03-01T06:23:37;4.60;;;2.27;;
11048;SDS011;5577;42.706;23.160;2023-03-01T06:26:21;4.03;;;3.13;;
11048;SDS011;5577;42.706;23.160;2023-03-01T06:29:05;3.30;;;3.00;;
11048;SDS011;5577;42.706;23.160;2023-03-01T06:31:49;3.20;;;2.90;;
11048;SDS011;5577;42.706;23.160;2023-03-01T06:34:33;4.73;;;3.13;;
11048;SDS011;5577;42.706;23.160;2023-03-01T06:37:17;8.87;;;4.87;;
11048;SDS011;5577;42.706;23.160;2023-03-01T06:40:02;8.70;;;4.87;;
11048;SDS011;5577;42.706;23.160;2023-03-01T06:42:54;10.43;;;4.47;;
11048;SDS011;5577;42.706;23.160;2023-03-01T06:45:38;6.63;;;4.50;;
11048;SDS011;5577;42.706;23.160;2023-03-01T06:48:22;7.23;;;4.40;;
11048;SDS011;5577;42.706;23.160;2023-03-01T06:51:06;6.93;;;4.33;;
11048;SDS011;5577;42.706;23.160;2023-03-01T06:53:50;8.43;;;4.47;;
11048;SDS011;5577;42.706;23.160;2023-03-01T06:56:34;8.37;;;4.73;;
11048;SDS011;5577;42.706;23.160;2023-03-01T06:59:18;8.57;;;4.67;;
11048;SDS011;5577;42.706;23.160;2023-03-01T07:02:03;8.73;;;5.20;;
11048;SDS011;5577;42.706;23.160;2023-03-01T07:04:48;7.57;;;5.20;;
11048;SDS011;5577;42.706;23.160;2023-03-01T07:07:34;7.10;;;4.70;;
11048;SDS011;5577;42.706;23.160;2023-03-01T07:10:17;8.40;;;5.70;;
11048;SDS011;5577;42.706;23.160;2023-03-01T07:13:02;8.00;;;5.40;;
11048;SDS011;5577;42.706;23.160;2023-03-01T07:15:46;9.27;;;5.67;;
11048;SDS011;5577;42.706;23.160;2023-03-01T07:18:30;8.10;;;5.20;;
11048;SDS011;5577;42.706;23.160;2023-03-01T07:21:14;6.73;;;5.23;;
11048;SDS011;5577;42.706;23.160;2023-03-01T07:24:00;10.00;;;5.40;;
11048;SDS011;5577;42.706;23.160;2023-03-01T07:26:47;9.20;;;6.07;;
11048;SDS011;5577;42.706;23.160;2023-03-01T07:29:33;8.20;;;6.10;;
11048;SDS011;5577;42.706;23.160;2023-03-01T07:32:17;5.27;;;4.63;;
11048;SDS011;5577;42.706;23.160;2023-03-01T07:35:01;7.57;;;4.90;;
11048;SDS011;5577;42.706;23.160;2023-03-01T07:37:45;6.83;;;5.07;;
11048;SDS011;5577;42.706;23.160;2023-03-01T07:40:29;5.43;;;4.40;;
11048;SDS011;5577;42.706;23.160;2023-03-01T07:43:13;6.23;;;4.93;;
11048;SDS011;5577;42.706;23.160;2023-03-01T07:46:00;7.23;;;5.50;;
11048;SDS011;5577;42.706;23.160;2023-03-01T07:48:45;4.90;;;4.00;;
11048;SDS011;5577;42.706;23.160;2023-03-01T07:51:29;5.80;;;4.60;;
11048;SDS011;5577;42.706;23.160;2023-03-01T07:54:13;6.50;;;5.50;;
11048;SDS011;5577;42.706;23.160;2023-03-01T07:56:57;6.77;;;4.20;;
11048;SDS011;5577;42.706;23.160;2023-03-01T07:59:41;7.43;;;4.23;;
11048;SDS011;5577;42.706;23.160;2023-03-01T08:02:25;4.97;;;4.00;;
11048;SDS011;5577;42.706;23.160;2023-03-01T08:05:09;4.77;;;4.20;;
11048;SDS011;5577;42.706;23.160;2023-03-01T08:07:54;5.20;;;3.90;;
11048;SDS011;5577;42.706;23.160;2023-03-01T08:10:38;5.73;;;3.87;;
11048;SDS011;5577;42.706;23.160;2023-03-01T08:13:21;5.97;;;4.40;;
11048;SDS011;5577;42.706;23.160;2023-03-01T08:16:07;5.97;;;4.33;;
11048;SDS011;5577;42.706;23.160;2023-03-01T08:18:53;6.13;;;4.53;;
11048;SDS011;5577;42.706;23.160;2023-03-01T08:21:40;4.93;;;4.10;;
11048;SDS011;5577;42.706;23.160;2023-03-01T08:24:24;5.00;;;4.40;;
11048;SDS011;5577;42.706;23.160;2023-03-01T08:27:08;5.53;;;4.13;;
11048;SDS011;5577;42.706;23.160;2023-03-01T08:29:52;4.57;;;4.13;;
11048;SDS011;5577;42.706;23.160;2023-03-01T08:32:37;5.10;;;4.20;;
11048;SDS011;5577;42.706;23.160;2023-03-01T08:35:22;6.23;;;4.33;;
11048;SDS011;5577;42.706;23.160;2023-03-01T08:38:06;7.13;;;6.27;;
11048;SDS011;5577;42.706;23.160;2023-03-01T08:40:50;7.10;;;6.27;;
11048;SDS011;5577;42.706;23.160;2023-03-01T08:43:34;6.70;;;5.00;;
11048;SDS011;5577;42.706;23.160;2023-03-01T08:46:18;5.20;;;4.70;;
11048;SDS011;5577;42.706;23.160;2023-03-01T08:49:06;5.10;;;4.60;;
11048;SDS011;5577;42.706;23.160;2023-03-01T08:51:55;5.53;;;5.03;;
11048;SDS011;5577;42.706;23.160;2023-03-01T08:54:39;7.97;;;5.07;;
11048;SDS011;5577;42.706;23.160;2023-03-01T08:57:23;5.80;;;5.20;;
11048;SDS011;5577;42.706;23.160;2023-03-01T09:00:07;7.27;;;5.70;;
11048;SDS011;5577;42.706;23.160;2023-03-01T09:02:52;6.40;;;5.20;;
11048;SDS011;5577;42.706;23.160;2023-03-01T09:05:36;6.33;;;5.73;;
11048;SDS011;5577;42.706;23.160;2023-03-01T09:08:20;7.30;;;5.93;;
11048;SDS011;5577;42.706;23.160;2023-03-01T09:11:05;8.73;;;6.50;;
11048;SDS011;5577;42.706;23.160;2023-03-01T09:13:50;8.37;;;6.53;;
11048;SDS011;5577;42.706;23.160;2023-03-01T09:16:35;7.73;;;5.63;;
11048;SDS011;5577;42.706;23.160;2023-03-01T09:19:19;6.13;;;5.53;;
11048;SDS011;5577;42.706;23.160;2023-03-01T09:22:03;6.47;;;5.87;;
11048;SDS011;5577;42.706;23.160;2023-03-01T09:24:48;7.00;;;4.93;;
11048;SDS011;5577;42.706;23.160;2023-03-01T09:27:32;5.60;;;5.03;;
11048;SDS011;5577;42.706;23.160;2023-03-01T09:30:16;5.37;;;4.87;;
11048;SDS011;5577;42.706;23.160;2023-03-01T09:33:00;8.20;;;5.40;;
11048;SDS011;5577;42.706;23.160;2023-03-01T09:35:44;6.50;;;4.90;;
11048;SDS011;5577;42.706;23.160;2023-03-01T09:38:30;5.60;;;4.60;;
11048;SDS011;5577;42.706;23.160;2023-03-01T09:41:23;8.27;;;5.40;;
11048;SDS011;5577;42.706;23.160;2023-03-01T09:44:13;5.00;;;4.50;;
11048;SDS011;5577;42.706;23.160;2023-03-01T09:47:18;20.93;;;13.70;;
11048;SDS011;5577;42.706;23.160;2023-03-01T09:53:09;5.97;;;4.80;;
11048;SDS011;5577;42.706;23.160;2023-03-01T09:56:12;4.73;;;4.33;;
11048;SDS011;5577;42.706;23.160;2023-03-01T10:11:22;4.30;;;3.40;;
11048;SDS011;5577;42.706;23.160;2023-03-01T10:23:08;5.40;;;3.90;;
11048;SDS011;5577;42.706;23.160;2023-03-01T10:29:10;4.43;;;3.83;;
11048;SDS011;5577;42.706;23.160;2023-03-01T10:31:56;4.93;;;3.73;;
11048;SDS011;5577;42.706;23.160;2023-03-01T10:34:40;6.50;;;4.60;;
11048;SDS011;5577;42.706;23.160;2023-03-01T10:37:24;11.03;;;5.53;;
11048;SDS011;5577;42.706;23.160;2023-03-01T10:40:10;7.53;;;4.60;;
11048;SDS011;5577;42.706;23.160;2023-03-01T10:42:57;4.53;;;4.07;;
11048;SDS011;5577;42.706;23.160;2023-03-01T10:45:44;5.87;;;3.73;;
11048;SDS011;5577;42.706;23.160;2023-03-01T10:48:28;5.80;;;4.23;;
11048;SDS011;5577;42.706;23.160;2023-03-01T10:51:16;6.50;;;4.43;;
11048;SDS011;5577;42.706;23.160;2023-03-01T10:54:03;5.23;;;4.20;;
11048;SDS011;5577;42.706;23.160;2023-03-01T10:56:53;5.50;;;3.70;;
11048;SDS011;5577;42.706;23.160;2023-03-01T10:59:39;7.47;;;4.83;;
11048;SDS011;5577;42.706;23.160;2023-03-01T11:02:26;7.67;;;4.57;;
11048;SDS011;5577;42.706;23.160;2023-03-01T11:05:16;6.27;;;3.70;;
11048;SDS011;5577;42.706;23.160;2023-03-01T11:08:07;4.63;;;4.00;;
11048;SDS011;5577;42.706;23.160;2023-03-01T11:11:01;4.20;;;3.53;;
11048;SDS011;5577;42.706;23.160;2023-03-01T11:13:56;7.37;;;3.80;;
11048;SDS011;5577;42.706;23.160;2023-03-01T11:16:44;4.57;;;4.00;;
11048;SDS011;5577;42.706;23.160;2023-03-01T11:19:31;5.20;;;4.23;;
11048;SDS011;5577;42.706;23.160;2023-03-01T11:22:19;6.13;;;4.73;;
11048;SDS011;5577;42.706;23.160;2023-03-01T11:25:07;5.67;;;4.20;;
11048;SDS011;5577;42.706;23.160;2023-03-01T11:27:57;6.10;;;4.47;;
11048;SDS011;5577;42.706;23.160;2023-03-01T11:37:01;4.87;;;3.97;;
11048;SDS011;5577;42.706;23.160;2023-03-01T11:42:48;52.53;;;27.80;;
11048;SDS011;5577;42.706;23.160;2023-03-01T11:48:56;11.70;;;8.27;;
11048;SDS011;5577;42.706;23.160;2023-03-01T12:13:34;4.00;;;3.30;;
11048;SDS011;5577;42.706;23.160;2023-03-01T12:23:31;5.50;;;4.00;;
11048;SDS011;5577;42.706;23.160;2023-03-01T12:32:26;6.07;;;5.17;;
11048;SDS011;5577;42.706;23.160;2023-03-01T12:47:56;19.07;;;14.27;;
11048;SDS011;5577;42.706;23.160;2023-03-01T12:50:52;7.03;;;6.00;;
11048;SDS011;5577;42.706;23.160;2023-03-01T12:53:55;7.83;;;5.80;;
11048;SDS011;5577;42.706;23.160;2023-03-01T12:56:42;6.67;;;6.00;;
11048;SDS011;5577;42.706;23.160;2023-03-01T12:59:38;6.53;;;5.30;;
11048;SDS011;5577;42.706;23.160;2023-03-01T13:02:23;7.07;;;4.97;;
11048;SDS011;5577;42.706;23.160;2023-03-01T13:11:03;5.50;;;5.00;;
11048;SDS011;5577;42.706;23.160;2023-03-01T13:13:49;6.00;;;4.50;;
11048;SDS011;5577;42.706;23.160;2023-03-01T13:16:39;5.87;;;4.60;;
11048;SDS011;5577;42.706;23.160;2023-03-01T13:19:27;5.37;;;4.57;;
11048;SDS011;5577;42.706;23.160;2023-03-01T13:22:26;6.53;;;4.80;;
11048;SDS011;5577;42.706;23.160;2023-03-01T13:25:16;5.03;;;4.50;;
11048;SDS011;5577;42.706;23.160;2023-03-01T13:28:35;6.13;;;5.53;;
11048;SDS011;5577;42.706;23.160;2023-03-01T13:33:59;6.60;;;5.13;;
11048;SDS011;5577;42.706;23.160;2023-03-01T13:36:48;5.03;;;4.30;;
11048;SDS011;5577;42.706;23.160;2023-03-01T13:39:38;6.27;;;5.00;;
11048;SDS011;5577;42.706;23.160;2023-03-01T13:42:35;6.80;;;4.90;;
11048;SDS011;5577;42.706;23.160;2023-03-01T13:45:23;5.73;;;4.77;;
11048;SDS011;5577;42.706;23.160;2023-03-01T13:48:22;16.17;;;13.43;;
11048;SDS011;5577;42.706;23.160;2023-03-01T13:51:10;8.43;;;5.50;;
11048;SDS011;5577;42.706;23.160;2023-03-01T13:53:55;8.33;;;6.33;;
11048;SDS011;5577;42.706;23.160;2023-03-01T13:56:42;4.87;;;4.37;;
11048;SDS011;5577;42.706;23.160;2023-03-01T13:59:27;5.27;;;4.50;;
11048;SDS011;5577;42.706;23.160;2023-03-01T14:02:13;6.00;;;4.90;;
11048;SDS011;5577;42.706;23.160;2023-03-01T14:04:59;5.37;;;4.53;;
11048;SDS011;5577;42.706;23.160;2023-03-01T14:07:50;5.03;;;4.50;;
11048;SDS011;5577;42.706;23.160;2023-03-01T14:10:37;5.97;;;4.77;;
11048;SDS011;5577;42.706;23.160;2023-03-01T14:19:34;6.67;;;4.73;;
11048;SDS011;5577;42.706;23.160;2023-03-01T14:22:22;5.60;;;4.43;;
11048;SDS011;5577;42.706;23.160;2023-03-01T14:34:21;10.50;;;5.90;;
11048;SDS011;5577;42.706;23.160;2023-03-01T14:37:26;8.43;;;6.67;;
11048;SDS011;5577;42.706;23.160;2023-03-01T14:40:20;5.97;;;5.07;;
11048;SDS011;5577;42.706;23.160;2023-03-01T14:43:10;8.43;;;5.63;;
11048;SDS011;5577;42.706;23.160;2023-03-01T14:46:00;6.60;;;4.80;;
11048;SDS011;5577;42.706;23.160;2023-03-01T14:48:44;9.50;;;6.53;;
11048;SDS011;5577;42.706;23.160;2023-03-01T14:51:28;7.10;;;4.70;;
11048;SDS011;5577;42.706;23.160;2023-03-01T14:54:19;9.13;;;6.67;;
11048;SDS011;5577;42.706;23.160;2023-03-01T14:57:13;6.63;;;4.47;;
11048;SDS011;5577;42.706;23.160;2023-03-01T15:00:00;6.60;;;5.13;;
11048;SDS011;5577;42.706;23.160;2023-03-01T15:02:51;8.33;;;5.47;;
11048;SDS011;5577;42.706;23.160;2023-03-01T15:05:37;6.50;;;4.87;;
11048;SDS011;5577;42.706;23.160;2023-03-01T15:08:25;5.63;;;4.87;;
11048;SDS011;5577;42.706;23.160;2023-03-01T15:17:39;10.37;;;6.70;;
11048;SDS011;5577;42.706;23.160;2023-03-01T15:20:24;5.40;;;4.70;;
11048;SDS011;5577;42.706;23.160;2023-03-01T15:23:17;8.37;;;5.20;;
11048;SDS011;5577;42.706;23.160;2023-03-01T15:26:16;8.27;;;5.80;;
11048;SDS011;5577;42.706;23.160;2023-03-01T15:29:10;7.23;;;6.17;;
11048;SDS011;5577;42.706;23.160;2023-03-01T15:32:04;6.13;;;5.53;;
11048;SDS011;5577;42.706;23.160;2023-03-01T15:34:53;6.33;;;5.13;;
11048;SDS011;5577;42.706;23.160;2023-03-01T15:37:39;6.60;;;4.43;;
11048;SDS011;5577;42.706;23.160;2023-03-01T15:40:31;15.90;;;14.00;;
11048;SDS011;5577;42.706;23.160;2023-03-01T15:43:36;6.60;;;5.00;;
11048;SDS011;5577;42.706;23.160;2023-03-01T15:46:34;8.97;;;5.07;;
11048;SDS011;5577;42.706;23.160;2023-03-01T15:52:25;7.50;;;5.40;;
11048;SDS011;5577;42.706;23.160;2023-03-01T15:55:15;6.60;;;5.10;;
11048;SDS011;5577;42.706;23.160;2023-03-01T15:58:04;6.97;;;4.43;;
11048;SDS011;5577;42.706;23.160;2023-03-01T16:00:53;9.90;;;5.07;;
11048;SDS011;5577;42.706;23.160;2023-03-01T16:03:40;7.53;;;4.90;;
11048;SDS011;5577;42.706;23.160;2023-03-01T16:06:24;11.20;;;7.40;;
11048;SDS011;5577;42.706;23.160;2023-03-01T16:09:08;8.63;;;5.70;;
11048;SDS011;5577;42.706;23.160;2023-03-01T16:11:52;8.97;;;5.63;;
11048;SDS011;5577;42.706;23.160;2023-03-01T16:14:37;10.90;;;5.80;;
11048;SDS011;5577;42.706;23.160;2023-03-01T16:17:21;8.33;;;5.73;;
11048;SDS011;5577;42.706;23.160;2023-03-01T16:20:05;8.60;;;6.13;;
11048;SDS011;5577;42.706;23.160;2023-03-01T16:22:49;10.60;;;6.93;;
11048;SDS011;5577;42.706;23.160;2023-03-01T16:25:35;12.30;;;9.60;;
11048;SDS011;5577;42.706;23.160;2023-03-01T16:28:19;8.50;;;7.60;;
11048;SDS011;5577;42.706;23.160;2023-03-01T16:31:03;10.87;;;8.43;;
11048;SDS011;5577;42.706;23.160;2023-03-01T16:33:48;8.13;;;5.40;;
11048;SDS011;5577;42.706;23.160;2023-03-01T16:36:36;6.63;;;5.50;;
11048;SDS011;5577;42.706;23.160;2023-03-01T16:39:20;9.47;;;6.20;;
11048;SDS011;5577;42.706;23.160;2023-03-01T16:42:04;9.00;;;5.60;;
11048;SDS011;5577;42.706;23.160;2023-03-01T16:44:48;8.10;;;5.63;;
11048;SDS011;5577;42.706;23.160;2023-03-01T16:47:32;9.83;;;7.07;;
11048;SDS011;5577;42.706;23.160;2023-03-01T16:50:17;11.60;;;8.50;;
11048;SDS011;5577;42.706;23.160;2023-03-01T16:53:01;8.40;;;6.03;;
11048;SDS011;5577;42.706;23.160;2023-03-01T16:55:44;9.10;;;6.70;;
11048;SDS011;5577;42.706;23.160;2023-03-01T16:58:37;8.90;;;6.53;;
11048;SDS011;5577;42.706;23.160;2023-03-01T17:01:21;7.73;;;5.67;;
11048;SDS011;5577;42.706;23.160;2023-03-01T17:04:12;15.47;;;7.60;;
11048;SDS011;5577;42.706;23.160;2023-03-01T17:06:56;13.87;;;6.80;;
11048;SDS011;5577;42.706;23.160;2023-03-01T17:09:40;12.63;;;7.53;;
11048;SDS011;5577;42.706;23.160;2023-03-01T17:12:24;10.97;;;7.60;;
11048;SDS011;5577;42.706;23.160;2023-03-01T17:15:09;11.20;;;6.90;;
11048;SDS011;5577;42.706;23.160;2023-03-01T17:17:55;10.70;;;6.70;;
11048;SDS011;5577;42.706;23.160;2023-03-01T17:20:39;16.33;;;11.43;;
11048;SDS011;5577;42.706;23.160;2023-03-01T17:23:23;17.00;;;10.07;;
11048;SDS011;5577;42.706;23.160;2023-03-01T17:26:07;14.37;;;9.10;;
11048;SDS011;5577;42.706;23.160;2023-03-01T17:28:52;14.50;;;9.53;;
11048;SDS011;5577;42.706;23.160;2023-03-01T17:31:36;14.73;;;9.70;;
11048;SDS011;5577;42.706;23.160;2023-03-01T17:34:20;33.43;;;18.63;;
11048;SDS011;5577;42.706;23.160;2023-03-01T17:37:03;23.13;;;12.10;;
11048;SDS011;5577;42.706;23.160;2023-03-01T17:39:48;38.23;;;18.93;;
11048;SDS011;5577;42.706;23.160;2023-03-01T17:42:32;28.47;;;15.33;;
11048;SDS011;5577;42.706;23.160;2023-03-01T17:45:16;17.37;;;9.43;;
11048;SDS011;5577;42.706;23.160;2023-03-01T17:48:00;10.70;;;6.67;;
11048;SDS011;5577;42.706;23.160;2023-03-01T17:50:44;10.77;;;6.77;;
11048;SDS011;5577;42.706;23.160;2023-03-01T17:53:28;10.90;;;6.70;;
11048;SDS011;5577;42.706;23.160;2023-03-01T17:56:13;12.47;;;7.30;;
11048;SDS011;5577;42.706;23.160;2023-03-01T17:58:57;8.63;;;7.27;;
11048;SDS011;5577;42.706;23.160;2023-03-01T18:01:42;13.17;;;8.40;;
11048;SDS011;5577;42.706;23.160;2023-03-01T18:04:26;10.47;;;8.00;;
11048;SDS011;5577;42.706;23.160;2023-03-01T18:07:11;11.77;;;7.90;;
11048;SDS011;5577;42.706;23.160;2023-03-01T18:09:55;13.83;;;6.73;;
11048;SDS011;5577;42.706;23.160;2023-03-01T18:12:39;14.63;;;11.83;;
11048;SDS011;5577;42.706;23.160;2023-03-01T18:15:23;12.97;;;9.07;;
11048;SDS011;5577;42.706;23.160;2023-03-01T18:18:07;12.10;;;9.73;;
11048;SDS011;5577;42.706;23.160;2023-03-01T18:20:55;12.20;;;8.23;;
11048;SDS011;5577;42.706;23.160;2023-03-01T18:23:40;15.63;;;9.93;;
11048;SDS011;5577;42.706;23.160;2023-03-01T18:26:24;14.57;;;9.13;;
11048;SDS011;5577;42.706;23.160;2023-03-01T18:29:10;18.20;;;9.10;;
11048;SDS011;5577;42.706;23.160;2023-03-01T18:31:54;14.93;;;9.60;;
11048;SDS011;5577;42.706;23.160;2023-03-01T18:34:38;13.73;;;8.80;;
11048;SDS011;5577;42.706;23.160;2023-03-01T18:37:22;17.60;;;9.40;;
11048;SDS011;5577;42.706;23.160;2023-03-01T18:40:06;12.77;;;8.43;;
11048;SDS011;5577;42.706;23.160;2023-03-01T18:42:51;14.10;;;9.47;;
11048;SDS011;5577;42.706;23.160;2023-03-01T18:45:35;17.07;;;9.27;;
11048;SDS011;5577;42.706;23.160;2023-03-01T18:48:19;16.83;;;9.87;;
11048;SDS011;5577;42.706;23.160;2023-03-01T18:51:14;13.23;;;9.73;;
11048;SDS011;5577;42.706;23.160;2023-03-01T18:54:18;13.90;;;9.97;;
11048;SDS011;5577;42.706;23.160;2023-03-01T18:57:02;15.73;;;8.80;;